createdAt,value
2018-02-14T00:01:21.448Z,39.60
2018-02-14T00:03:48.737Z,40.70
2018-02-14T00:06:15.029Z,39.90
2018-02-14T00:08:41.290Z,39.50
2018-02-14T00:11:08.368Z,39.40
2018-02-14T00:13:34.653Z,39.30
2018-02-14T00:16:00.876Z,39.40
2018-02-14T00:18:27.248Z,39.70
2018-02-14T00:20:53.573Z,38.70
2018-02-14T00:23:19.817Z,38.90
2018-02-14T00:25:46.232Z,38.80
2018-02-14T00:28:13.184Z,38.50
2018-02-14T00:30:39.508Z,38.50
2018-02-14T00:33:06.512Z,38.90
2018-02-14T00:35:33.028Z,39.10
2018-02-14T00:38:00.012Z,38.70
2018-02-14T00:40:26.245Z,38.80
2018-02-14T00:42:53.196Z,39.20
2018-02-14T00:45:19.473Z,39.40
2018-02-14T00:47:45.719Z,38.70
2018-02-14T00:50:11.956Z,38.10
2018-02-14T00:52:38.221Z,38.50
2018-02-14T00:55:04.506Z,38.60
2018-02-14T00:57:30.789Z,38.40
2018-02-14T00:59:57.019Z,38.80
2018-02-14T01:02:23.301Z,38.80
2018-02-14T01:04:49.533Z,39.00
2018-02-14T01:07:16.545Z,38.60
2018-02-14T01:09:42.814Z,38.80
2018-02-14T01:12:09.795Z,38.40
2018-02-14T01:14:36.065Z,38.60
2018-02-14T01:17:02.317Z,39.60
2018-02-14T01:19:28.580Z,39.00
2018-02-14T01:21:54.816Z,40.10
2018-02-14T01:24:21.083Z,39.50
2018-02-14T01:26:47.330Z,39.40
2018-02-14T01:29:13.589Z,39.60
2018-02-14T01:31:39.851Z,40.00
2018-02-14T01:34:06.829Z,40.20
2018-02-14T01:36:33.834Z,40.60
2018-02-14T01:39:00.837Z,42.40
2018-02-14T01:41:27.100Z,42.20
2018-02-14T01:43:53.869Z,40.50
2018-02-14T01:46:20.862Z,41.00
2018-02-14T01:48:47.073Z,41.00
2018-02-14T01:51:13.353Z,42.00
2018-02-14T01:53:40.359Z,44.50
2018-02-14T01:56:06.742Z,43.80
2018-02-14T01:58:33.001Z,44.40
2018-02-14T02:00:59.274Z,45.60
2018-02-14T02:03:25.516Z,45.30
2018-02-14T02:05:52.460Z,46.50
2018-02-14T02:08:18.828Z,46.00
2018-02-14T02:10:45.082Z,45.70
2018-02-14T02:13:11.385Z,45.10
2018-02-14T02:15:38.933Z,45.60
2018-02-14T02:18:05.173Z,45.50
2018-02-14T02:20:33.215Z,46.80
2018-02-14T02:22:59.477Z,46.80
2018-02-14T02:25:25.735Z,47.10
2018-02-14T02:27:51.993Z,47.30
2018-02-14T02:30:18.293Z,47.80
2018-02-14T02:32:44.569Z,48.60
2018-02-14T02:35:11.573Z,49.50
2018-02-14T02:37:37.819Z,49.50
2018-02-14T02:40:25.981Z,50.90
2018-02-14T02:42:52.235Z,49.70
2018-02-14T02:45:19.257Z,51.00
2018-02-14T02:47:45.535Z,51.00
2018-02-14T02:50:11.824Z,50.30
2018-02-14T02:52:38.056Z,51.30
2018-02-14T02:55:05.044Z,50.90
2018-02-14T02:57:32.288Z,50.80
2018-02-14T02:59:58.551Z,51.50
2018-02-14T03:02:24.802Z,51.30
2018-02-14T03:04:51.062Z,51.20
2018-02-14T03:07:17.336Z,51.00
2018-02-14T03:09:43.604Z,51.10
2018-02-14T03:12:09.844Z,51.80
2018-02-14T03:14:36.037Z,51.60
2018-02-14T03:17:02.570Z,52.10
2018-02-14T03:19:28.643Z,52.40
2018-02-14T03:21:55.434Z,52.00
2018-02-14T03:24:21.472Z,52.00
2018-02-14T03:26:47.573Z,53.00
2018-02-14T03:29:13.633Z,52.80
2018-02-14T03:31:39.672Z,52.80
2018-02-14T03:34:05.729Z,52.50
2018-02-14T03:36:31.836Z,52.70
2018-02-14T03:38:57.878Z,52.80
2018-02-14T03:41:24.705Z,54.00
2018-02-14T03:43:51.536Z,54.70
2018-02-14T03:46:17.615Z,54.60
2018-02-14T03:48:44.213Z,54.80
2018-02-14T03:51:10.268Z,54.20
2018-02-14T03:53:37.048Z,55.50
2018-02-14T03:56:03.207Z,55.30
2018-02-14T03:58:29.264Z,55.20
2018-02-14T04:00:55.315Z,55.10
2018-02-14T04:03:21.353Z,55.60
2018-02-14T04:05:47.406Z,55.70
2018-02-14T04:08:14.205Z,55.50
2018-02-14T04:10:40.269Z,55.60
2018-02-14T04:13:06.304Z,55.50
2018-02-14T04:15:32.338Z,55.50
2018-02-14T04:17:58.395Z,55.50
2018-02-14T04:20:24.432Z,56.10
2018-02-14T04:22:50.471Z,55.60
2018-02-14T04:25:16.595Z,56.10
2018-02-14T04:27:42.697Z,56.40
2018-02-14T04:30:08.771Z,56.70
2018-02-14T04:32:34.841Z,56.80
2018-02-14T04:35:01.644Z,56.40
2018-02-14T04:37:27.707Z,56.40
2018-02-14T04:39:53.740Z,57.70
2018-02-14T04:42:19.797Z,56.60
2018-02-14T04:44:45.985Z,57.20
2018-02-14T04:47:12.034Z,57.50
2018-02-14T04:49:38.829Z,56.10
2018-02-14T04:52:04.882Z,56.10
2018-02-14T04:54:30.945Z,56.50
2018-02-14T04:56:57.007Z,56.60
2018-02-14T04:59:23.104Z,56.30
2018-02-14T05:01:49.195Z,56.90
2018-02-14T05:04:15.317Z,56.90
2018-02-14T05:06:41.356Z,56.00
2018-02-14T05:09:07.401Z,57.50
2018-02-14T05:11:33.457Z,57.30
2018-02-14T05:13:59.707Z,57.70
2018-02-14T05:16:26.015Z,56.80
2018-02-14T05:18:52.244Z,56.70
2018-02-14T05:21:18.524Z,57.40
2018-02-14T05:23:45.595Z,58.10
2018-02-14T05:26:11.885Z,58.10
2018-02-14T05:28:38.140Z,57.00
2018-02-14T05:31:04.440Z,57.50
2018-02-14T05:33:30.788Z,58.20
2018-02-14T05:35:57.068Z,57.50
2018-02-14T05:38:23.327Z,58.30
2018-02-14T05:40:49.614Z,59.00
2018-02-14T05:43:15.955Z,58.00
2018-02-14T05:45:42.995Z,59.00
2018-02-14T05:48:09.313Z,59.10
2018-02-14T05:50:35.561Z,65.10
2018-02-14T05:53:01.845Z,61.80
2018-02-14T05:55:28.168Z,61.50
2018-02-14T05:57:55.140Z,60.30
2018-02-14T06:00:21.407Z,59.80
2018-02-14T06:02:47.675Z,59.60
2018-02-14T06:05:13.921Z,59.00
2018-02-14T06:07:40.208Z,58.00
2018-02-14T06:10:07.177Z,58.70
2018-02-14T06:12:34.144Z,58.10
2018-02-14T06:15:00.747Z,58.10
2018-02-14T06:17:27.767Z,58.00
2018-02-14T06:19:54.032Z,58.00
2018-02-14T06:22:20.396Z,58.00
2018-02-14T06:24:47.460Z,61.20
2018-02-14T06:27:13.739Z,61.10
2018-02-14T06:29:41.040Z,61.20
2018-02-14T06:32:07.304Z,62.80
2018-02-14T06:34:34.352Z,59.40
2018-02-14T06:37:00.618Z,59.60
2018-02-14T06:39:26.932Z,62.00
2018-02-14T06:41:53.155Z,62.10
2018-02-14T06:44:19.436Z,63.60
2018-02-14T06:46:46.489Z,62.30
2018-02-14T06:49:13.488Z,64.70
2018-02-14T06:51:39.716Z,64.90
2018-02-14T06:54:05.965Z,62.10
2018-02-14T06:56:32.268Z,60.40
2018-02-14T06:58:59.250Z,57.90
2018-02-14T07:01:26.232Z,55.70
2018-02-14T07:03:52.625Z,55.60
2018-02-14T07:06:19.066Z,58.30
2018-02-14T07:08:46.081Z,55.50
2018-02-14T07:11:12.304Z,55.50
2018-02-14T07:13:38.608Z,55.90
2018-02-14T07:16:04.861Z,55.90
2018-02-14T07:18:31.660Z,55.00
2018-02-14T07:20:57.732Z,55.00
2018-02-14T07:23:29.696Z,53.70
2018-02-14T07:25:55.780Z,54.10
2018-02-14T07:28:21.845Z,52.80
2018-02-14T07:30:47.924Z,53.70
2018-02-14T07:33:14.009Z,53.60
2018-02-14T07:35:40.072Z,53.50
2018-02-14T07:38:06.153Z,52.40
2018-02-14T07:40:33.085Z,54.20
2018-02-14T07:42:59.211Z,54.10
2018-02-14T07:45:25.295Z,55.70
2018-02-14T07:47:53.860Z,54.60
2018-02-14T07:50:19.908Z,55.80
2018-02-14T07:52:46.764Z,55.50
2018-02-14T07:55:13.624Z,55.70
2018-02-14T07:57:40.416Z,56.40
2018-02-14T08:00:06.514Z,56.10
2018-02-14T08:02:35.082Z,56.50
2018-02-14T08:05:01.244Z,56.60
2018-02-14T08:07:28.113Z,55.70
2018-02-14T08:09:54.933Z,52.50
2018-02-14T08:12:21.745Z,53.20
2018-02-14T08:14:48.588Z,53.00
2018-02-14T08:17:15.385Z,49.40
2018-02-14T08:19:41.462Z,49.00
2018-02-14T08:22:08.409Z,44.00
2018-02-14T08:24:34.597Z,44.00
2018-02-14T08:27:00.661Z,39.90
2018-02-14T08:29:26.721Z,37.80
2018-02-14T08:31:55.491Z,37.40
2018-02-14T08:34:21.602Z,37.40
2018-02-14T08:36:47.652Z,35.30
2018-02-14T08:39:13.713Z,34.70
2018-02-14T08:41:39.905Z,34.90
2018-02-14T08:44:06.052Z,32.40
2018-02-14T08:46:32.676Z,33.50
2018-02-14T08:48:58.753Z,32.30
2018-02-14T08:51:24.789Z,30.90
2018-02-14T08:53:50.846Z,30.90
2018-02-14T08:56:16.881Z,30.70
2018-02-14T08:58:43.017Z,29.90
2018-02-14T09:01:09.065Z,30.10
2018-02-14T09:03:35.115Z,30.40
2018-02-14T09:06:01.165Z,29.40
2018-02-14T09:08:27.970Z,27.90
2018-02-14T09:10:54.036Z,27.90
2018-02-14T09:13:20.094Z,26.30
2018-02-14T09:15:46.139Z,24.60
2018-02-14T09:18:12.216Z,24.70
2018-02-14T09:20:43.505Z,25.20
2018-02-14T09:23:09.614Z,23.90
2018-02-14T09:25:35.756Z,23.00
2018-02-14T09:28:01.832Z,21.50
2018-02-14T09:30:27.945Z,21.50
2018-02-14T09:32:54.002Z,22.50
2018-02-14T09:35:20.046Z,22.30
2018-02-14T09:37:49.498Z,23.10
2018-02-14T09:40:15.614Z,22.80
2018-02-14T09:42:41.652Z,22.80
2018-02-14T09:45:07.700Z,22.70
2018-02-14T09:47:33.979Z,23.20
2018-02-14T09:50:01.029Z,24.00
2018-02-14T09:52:27.381Z,24.00
2018-02-14T09:54:54.669Z,22.60
2018-02-14T09:57:20.917Z,22.20
2018-02-14T09:59:47.900Z,22.40
2018-02-14T10:02:14.120Z,22.50
2018-02-14T10:04:41.092Z,22.40
2018-02-14T10:07:07.375Z,22.40
2018-02-14T10:09:35.075Z,21.50
2018-02-14T10:12:03.266Z,21.00
2018-02-14T10:14:29.484Z,19.10
2018-02-14T10:16:56.072Z,18.70
2018-02-14T10:19:23.047Z,18.20
2018-02-14T10:21:49.295Z,18.10
2018-02-14T10:24:15.651Z,18.60
2018-02-14T10:26:45.797Z,18.30
2018-02-14T10:29:12.056Z,16.00
2018-02-14T10:31:39.053Z,15.20
2018-02-14T10:34:05.308Z,15.20
2018-02-14T10:36:31.569Z,16.20
2018-02-14T10:38:57.802Z,16.50
2018-02-14T10:41:24.033Z,14.90
2018-02-14T10:43:51.388Z,15.00
2018-02-14T10:46:17.622Z,15.40
2018-02-14T10:48:44.442Z,14.70
2018-02-14T10:51:11.596Z,16.10
2018-02-14T10:53:37.824Z,16.10
2018-02-14T10:56:04.405Z,15.70
2018-02-14T10:58:37.488Z,15.50
2018-02-14T11:01:03.720Z,16.20
2018-02-14T11:03:36.113Z,16.10
2018-02-14T11:06:08.349Z,15.30
2018-02-14T11:08:37.888Z,15.90
2018-02-14T11:11:04.948Z,16.40
2018-02-14T11:13:31.166Z,16.50
2018-02-14T11:15:57.547Z,16.40
2018-02-14T11:18:23.859Z,16.30
2018-02-14T11:20:50.886Z,15.70
2018-02-14T11:23:19.806Z,15.70
2018-02-14T11:25:50.543Z,15.60
2018-02-14T11:28:16.596Z,15.60
2018-02-14T11:30:42.839Z,16.00
2018-02-14T11:33:09.104Z,15.10
2018-02-14T11:35:35.347Z,16.10
2018-02-14T11:38:01.617Z,15.20
2018-02-14T11:40:27.864Z,15.90
2018-02-14T11:42:54.359Z,15.00
2018-02-14T11:45:21.285Z,15.10
2018-02-14T11:47:48.269Z,17.10
2018-02-14T11:50:14.520Z,17.10
2018-02-14T11:52:40.749Z,16.20
2018-02-14T11:55:06.994Z,16.50
2018-02-14T11:57:33.317Z,17.40
2018-02-14T11:59:59.710Z,15.30
2018-02-14T12:02:28.855Z,16.50
2018-02-14T12:04:55.897Z,15.30
2018-02-14T12:07:22.212Z,15.30
2018-02-14T12:09:48.453Z,16.50
2018-02-14T12:12:14.719Z,15.10
2018-02-14T12:14:41.748Z,15.50
2018-02-14T12:17:11.685Z,15.40
2018-02-14T12:19:37.952Z,15.80
2018-02-14T12:22:04.278Z,15.60
2018-02-14T12:24:30.609Z,15.80
2018-02-14T12:26:56.852Z,15.90
2018-02-14T12:29:23.142Z,16.10
2018-02-14T12:31:49.432Z,16.60
2018-02-14T12:34:15.678Z,17.00
2018-02-14T12:36:46.945Z,16.40
2018-02-14T12:39:13.184Z,16.50
2018-02-14T12:41:39.520Z,16.20
2018-02-14T12:44:05.791Z,15.40
2018-02-14T12:46:32.044Z,15.50
2018-02-14T12:48:58.285Z,15.00
2018-02-14T12:51:24.570Z,17.40
2018-02-14T12:53:50.881Z,15.80
2018-02-14T12:56:18.803Z,15.10
2018-02-14T12:58:45.101Z,15.30
2018-02-14T13:01:11.370Z,15.60
2018-02-14T13:03:38.398Z,13.90
2018-02-14T13:06:04.816Z,13.80
2018-02-14T13:08:31.066Z,12.80
2018-02-14T13:10:57.500Z,12.40
2018-02-14T13:13:25.204Z,13.90
2018-02-14T13:15:52.157Z,15.10
2018-02-14T13:18:18.418Z,15.40
2018-02-14T13:20:44.686Z,12.30
2018-02-14T13:23:10.937Z,14.10
2018-02-14T13:25:37.321Z,13.40
2018-02-14T13:28:03.604Z,13.70
2018-02-14T13:30:29.872Z,11.90
2018-02-14T13:32:57.576Z,12.50
2018-02-14T13:35:24.540Z,12.20
2018-02-14T13:37:51.009Z,12.20
2018-02-14T13:40:17.280Z,11.80
2018-02-14T13:42:44.040Z,11.20
2018-02-14T13:45:10.280Z,11.20
2018-02-14T13:47:40.283Z,10.00
2018-02-14T13:50:07.902Z,12.10
2018-02-14T13:52:34.165Z,11.00
2018-02-14T13:55:01.150Z,11.40
2018-02-14T13:57:27.396Z,11.90
2018-02-14T13:59:54.351Z,10.10
2018-02-14T14:02:21.361Z,11.20
2018-02-14T14:04:47.633Z,11.20
2018-02-14T14:07:16.341Z,10.50
2018-02-14T14:09:42.561Z,12.70
2018-02-14T14:12:09.264Z,11.80
2018-02-14T14:14:35.605Z,10.70
2018-02-14T14:17:01.868Z,11.20
2018-02-14T14:19:28.108Z,10.90
2018-02-14T14:21:55.101Z,12.90
2018-02-14T14:24:21.381Z,12.90
2018-02-14T14:26:51.860Z,11.40
2018-02-14T14:29:18.813Z,12.20
2018-02-14T14:31:45.063Z,12.20
2018-02-14T14:34:11.363Z,12.60
2018-02-14T14:36:37.609Z,12.20
2018-02-14T14:39:05.303Z,12.20
2018-02-14T14:41:31.569Z,12.20
2018-02-14T14:43:59.724Z,12.30
2018-02-14T14:46:26.769Z,12.80
2018-02-14T14:48:53.001Z,12.70
2018-02-14T14:51:19.351Z,13.20
2018-02-14T14:53:45.648Z,12.40
2018-02-14T14:56:11.933Z,12.60
2018-02-14T14:58:38.132Z,12.80
2018-02-14T15:01:04.420Z,12.90
2018-02-14T15:03:35.054Z,14.20
2018-02-14T15:06:01.302Z,13.50
2018-02-14T15:08:27.532Z,13.90
2018-02-14T15:10:53.787Z,13.70
2018-02-14T15:13:20.033Z,14.30
2018-02-14T15:15:46.291Z,14.10
2018-02-14T15:18:13.312Z,14.40
2018-02-14T15:20:44.635Z,14.40
2018-02-14T15:23:10.882Z,15.20
2018-02-14T15:25:37.183Z,16.50
2018-02-14T15:28:03.468Z,16.10
2018-02-14T15:30:30.499Z,17.50
2018-02-14T15:32:56.676Z,17.50
2018-02-14T15:35:24.701Z,17.60
2018-02-14T15:37:53.570Z,17.60
2018-02-14T15:40:19.850Z,17.80
2018-02-14T15:42:46.877Z,17.50
2018-02-14T15:45:13.131Z,17.50
2018-02-14T15:47:40.154Z,18.20
2018-02-14T15:50:06.416Z,18.20
2018-02-14T15:52:32.693Z,17.70
2018-02-14T15:55:04.226Z,17.70
2018-02-14T15:57:30.469Z,17.70
2018-02-14T15:59:56.720Z,17.60
2018-02-14T16:02:22.988Z,17.30
2018-02-14T16:04:49.234Z,17.20
2018-02-14T16:07:15.588Z,17.80
2018-02-14T16:09:41.933Z,17.80
2018-02-14T16:12:08.272Z,17.80
2018-02-14T16:14:37.310Z,17.90
2018-02-14T16:17:03.577Z,17.90
2018-02-14T16:19:29.878Z,17.90
2018-02-14T16:21:56.097Z,17.80
2018-02-14T16:24:22.339Z,17.80
2018-02-14T16:26:49.584Z,17.70
2018-02-14T16:29:16.180Z,18.50
2018-02-14T16:31:43.220Z,18.70
2018-02-14T16:34:10.316Z,18.40
2018-02-14T16:36:36.595Z,18.40
2018-02-14T16:39:03.093Z,18.90
2018-02-14T16:41:29.466Z,18.20
2018-02-14T16:43:55.724Z,18.50
2018-02-14T16:46:22.104Z,18.90
2018-02-14T16:48:49.144Z,20.00
2018-02-14T16:51:15.448Z,20.00
2018-02-14T16:53:41.703Z,19.50
2018-02-14T16:56:11.266Z,19.50
2018-02-14T16:58:37.544Z,19.30
2018-02-14T17:01:03.818Z,19.70
2018-02-14T17:03:31.439Z,20.20
2018-02-14T17:05:58.412Z,21.00
2018-02-14T17:08:25.458Z,21.10
2018-02-14T17:10:51.662Z,21.10
2018-02-14T17:13:17.953Z,21.40
2018-02-14T17:15:44.952Z,22.00
2018-02-14T17:18:11.256Z,21.90
2018-02-14T17:20:37.484Z,22.00
2018-02-14T17:23:03.736Z,23.20
2018-02-14T17:25:30.007Z,22.40
2018-02-14T17:27:56.261Z,22.80
2018-02-14T17:30:22.557Z,22.50
2018-02-14T17:32:48.872Z,22.70
2018-02-14T17:35:15.106Z,22.90
2018-02-14T17:37:41.713Z,23.00
2018-02-14T17:40:08.083Z,23.30
2018-02-14T17:42:34.467Z,22.70
2018-02-14T17:45:00.922Z,23.30
2018-02-14T17:47:27.213Z,24.20
2018-02-14T17:49:53.493Z,23.70
2018-02-14T17:52:20.477Z,24.30
2018-02-14T17:54:46.836Z,24.20
2018-02-14T17:57:13.094Z,24.30
2018-02-14T17:59:40.081Z,24.00
2018-02-14T18:02:06.467Z,23.90
2018-02-14T18:04:32.786Z,24.90
2018-02-14T18:06:59.035Z,25.20
2018-02-14T18:09:26.049Z,23.70
2018-02-14T18:11:52.285Z,23.70
2018-02-14T18:14:18.498Z,23.90
2018-02-14T18:16:44.829Z,24.10
2018-02-14T18:19:11.152Z,24.20
2018-02-14T18:21:37.449Z,24.50
2018-02-14T18:24:03.760Z,24.50
2018-02-14T18:26:30.140Z,24.50
2018-02-14T18:28:57.093Z,24.50
2018-02-14T18:31:23.669Z,24.50
2018-02-14T18:33:49.885Z,25.30
2018-02-14T18:36:16.144Z,25.60
2018-02-14T18:38:42.385Z,25.80
2018-02-14T18:41:08.662Z,25.10
2018-02-14T18:43:34.888Z,25.30
2018-02-14T18:46:01.147Z,26.00
2018-02-14T18:48:27.409Z,26.00
2018-02-14T18:50:53.645Z,26.00
2018-02-14T18:53:19.988Z,26.20
2018-02-14T18:55:46.217Z,26.20
2018-02-14T18:58:12.506Z,26.50
2018-02-14T19:00:38.764Z,26.70
2018-02-14T19:03:05.634Z,26.70
2018-02-14T19:05:36.049Z,26.90
2018-02-14T19:08:02.309Z,27.20
2018-02-14T19:10:29.461Z,27.30
2018-02-14T19:12:56.048Z,27.30
2018-02-14T19:15:22.264Z,27.30
2018-02-14T19:17:49.347Z,26.80
2018-02-14T19:20:15.656Z,26.70
2018-02-14T19:22:42.011Z,27.40
2018-02-14T19:25:08.334Z,26.90
2018-02-14T19:27:34.566Z,27.70
2018-02-14T19:30:00.801Z,27.70
2018-02-14T19:32:27.124Z,27.90
2018-02-14T19:34:54.998Z,28.20
2018-02-14T19:37:23.685Z,28.10
2018-02-14T19:39:50.108Z,27.60
2018-02-14T19:42:16.387Z,28.40
2018-02-14T19:44:42.696Z,28.50
2018-02-14T19:47:08.964Z,28.60
2018-02-14T19:49:35.278Z,28.50
2018-02-14T19:52:01.560Z,28.30
2018-02-14T19:54:27.808Z,28.10
2018-02-14T19:56:54.049Z,28.50
2018-02-14T19:59:20.274Z,28.10
2018-02-14T20:01:47.233Z,28.60
2018-02-14T20:04:13.492Z,28.60
2018-02-14T20:06:39.789Z,28.70
2018-02-14T20:09:06.848Z,29.20
2018-02-14T20:11:33.968Z,28.60
2018-02-14T20:14:00.301Z,28.60
2018-02-14T20:16:26.574Z,28.90
2018-02-14T20:18:52.805Z,28.20
2018-02-14T20:21:20.304Z,28.60
2018-02-14T20:23:47.301Z,28.50
2018-02-14T20:26:13.345Z,28.50
2018-02-14T20:28:39.377Z,28.60
2018-02-14T20:31:05.524Z,28.80
2018-02-14T20:33:31.577Z,28.90
2018-02-14T20:35:58.360Z,28.50
2018-02-14T20:38:25.404Z,28.80
2018-02-14T20:40:51.551Z,28.80
2018-02-14T20:43:17.689Z,29.00
2018-02-14T20:45:43.729Z,28.90
2018-02-14T20:48:10.500Z,28.60
2018-02-14T20:50:37.270Z,28.90
2018-02-14T20:53:03.388Z,29.00
2018-02-14T20:55:30.216Z,28.90
2018-02-14T20:57:56.274Z,28.90
2018-02-14T21:00:23.088Z,28.70
2018-02-14T21:02:50.911Z,28.70
2018-02-14T21:05:17.767Z,28.50
2018-02-14T21:07:44.547Z,28.60
2018-02-14T21:10:10.593Z,28.60
2018-02-14T21:12:37.404Z,28.60
2018-02-14T21:15:04.703Z,28.70
2018-02-14T21:17:30.792Z,28.60
2018-02-14T21:19:56.841Z,28.80
2018-02-14T21:22:23.646Z,28.60
2018-02-14T21:24:49.896Z,28.60
2018-02-14T21:27:17.977Z,28.60
2018-02-14T21:29:44.080Z,28.70
2018-02-14T21:32:10.182Z,28.80
2018-02-14T21:34:36.211Z,29.20
2018-02-14T21:37:02.375Z,29.20
2018-02-14T21:39:29.266Z,29.80
2018-02-14T21:41:55.301Z,29.80
2018-02-14T21:44:21.517Z,29.30
2018-02-14T21:46:48.385Z,29.60
2018-02-14T21:49:14.420Z,29.50
2018-02-14T21:51:40.542Z,29.40
2018-02-14T21:54:13.796Z,29.30
2018-02-14T21:56:39.893Z,29.30
2018-02-14T21:59:06.670Z,29.40
2018-02-14T22:01:33.117Z,29.40
2018-02-14T22:03:59.217Z,29.30
2018-02-14T22:06:26.033Z,29.30
2018-02-14T22:08:52.352Z,29.30
2018-02-14T22:11:18.544Z,29.80
2018-02-14T22:13:44.779Z,28.90
2018-02-14T22:16:11.033Z,29.60
2018-02-14T22:18:37.880Z,29.80
2018-02-14T22:21:05.500Z,30.00
2018-02-14T22:23:32.144Z,30.00
2018-02-14T22:25:58.380Z,29.90
2018-02-14T22:28:24.619Z,30.30
2018-02-14T22:30:50.826Z,31.00
2018-02-14T22:33:18.050Z,30.20
2018-02-14T22:35:44.296Z,30.70
2018-02-14T22:38:10.557Z,30.70
2018-02-14T22:40:36.906Z,31.10
2018-02-14T22:43:03.193Z,30.70
2018-02-14T22:45:29.420Z,30.70
2018-02-14T22:47:56.384Z,30.70
2018-02-14T22:50:22.673Z,31.40
2018-02-14T22:52:48.920Z,30.70
2018-02-14T22:55:15.328Z,30.80
2018-02-14T22:57:41.567Z,30.70
2018-02-14T23:00:08.904Z,30.40
2018-02-14T23:02:35.908Z,29.90
2018-02-14T23:05:02.164Z,29.90
2018-02-14T23:07:28.500Z,29.40
2018-02-14T23:09:54.743Z,29.80
2018-02-14T23:12:21.064Z,30.00
2018-02-14T23:14:47.440Z,29.60
2018-02-14T23:17:13.736Z,29.40
2018-02-14T23:19:40.030Z,29.30
2018-02-14T23:22:06.931Z,29.00
2018-02-14T23:24:33.956Z,29.00
2018-02-14T23:27:00.213Z,29.00
2018-02-14T23:29:26.481Z,29.00
2018-02-14T23:31:52.731Z,29.00
2018-02-14T23:34:19.712Z,29.10
2018-02-14T23:36:46.692Z,29.30
2018-02-14T23:39:13.086Z,29.20
2018-02-14T23:41:40.309Z,28.80
2018-02-14T23:44:07.344Z,28.90
2018-02-14T23:46:33.593Z,28.90
2018-02-14T23:48:59.973Z,29.10
2018-02-14T23:51:26.283Z,29.10
2018-02-14T23:53:52.556Z,28.60
2018-02-14T23:56:18.813Z,29.00
2018-02-14T23:58:45.204Z,29.30
